Terminal Aerodrome Forecast
Issued by NWS

Home | Current Version | Previous Version | Text Only | Print | Product List | Glossary On
Versions: 1 2 3 4 5 6 7 8 9 10 11 12 13
684
FTUS44 KTSA 261722
TAFRVS
TAF
KRVS 261722Z 2618/2718 11007KT P6SM BKN090
     FM270000 13005KT P6SM OVC050
     FM270900 10004KT P6SM OVC025
     FM271500 14010KT P6SM OVC015=

USA.gov is the U.S. government's official web portal to all federal, state and local government web resources and services.